Time;durP1;ratioP1;P1;durP2;ratioP2;P2;SDS_P1;SDS_P2;PMS_P1;PMS_P2;Temp;Humidity;BMP_temperature;BMP_pressure;BME280_temperature;BME280_humidity;BME280_pressure;Samples;Min_cycle;Max_cycle;Signal;HPM_P1;HPM_P2
2020/12/11 00:01:30;;;;;;;25.57;19.03;;;4.10;99.90;;;;;;5092135;28;20439;-89
2020/12/11 00:03:56;;;;;;;23.83;18.77;;;4.10;99.90;;;;;;5099283;28;20474;-89
2020/12/11 00:06:23;;;;;;;24.33;20.20;;;4.10;99.90;;;;;;5095834;28;20449;-89
2020/12/11 00:08:50;;;;;;;23.63;19.13;;;4.20;99.90;;;;;;5093396;28;20828;-89
2020/12/11 00:11:17;;;;;;;23.60;19.10;;;4.10;99.90;;;;;;5092589;28;20910;-89
2020/12/11 00:13:43;;;;;;;24.43;20.47;;;4.10;99.90;;;;;;5092313;28;20461;-89
2020/12/11 00:16:10;;;;;;;22.53;17.83;;;4.10;99.90;;;;;;5094130;28;20904;-89
2020/12/11 00:18:36;;;;;;;23.20;18.83;;;4.20;99.90;;;;;;5099419;28;20829;-90
2020/12/11 00:21:03;;;;;;;24.27;19.93;;;4.10;99.90;;;;;;5102363;28;20477;-87
2020/12/11 00:23:29;;;;;;;23.43;20.53;;;4.20;99.90;;;;;;5104070;28;20481;-88
2020/12/11 00:25:58;;;;;;;25.37;20.67;;;4.20;99.90;;;;;;5092447;28;20455;-89
2020/12/11 00:28:25;;;;;;;23.10;17.93;;;4.10;99.90;;;;;;5080412;28;20451;-90
2020/12/11 00:30:52;;;;;;;25.57;19.97;;;4.10;99.90;;;;;;5085101;28;20474;-90
2020/12/11 00:33:19;;;;;;;24.80;19.17;;;4.10;99.90;;;;;;5096310;28;20431;-91
2020/12/11 00:35:45;;;;;;;24.53;18.77;;;4.10;99.90;;;;;;5096138;28;20450;-90
2020/12/11 00:38:11;;;;;;;22.47;19.10;;;4.10;99.90;;;;;;5075923;28;20474;-91
2020/12/11 00:40:37;;;;;;;21.70;17.87;;;4.10;99.90;;;;;;5075920;28;20466;-91
2020/12/11 00:43:04;;;;;;;22.37;18.63;;;4.10;99.90;;;;;;5096451;28;20490;-91
2020/12/11 00:45:30;;;;;;;20.70;17.50;;;4.10;99.90;;;;;;5096442;28;20464;-91
2020/12/11 00:47:56;;;;;;;26.17;20.10;;;4.10;99.90;;;;;;5097549;28;20453;-90
2020/12/11 00:50:23;;;;;;;18.90;16.90;;;4.10;99.90;;;;;;5118782;28;20906;-91
2020/12/11 00:52:49;;;;;;;18.13;16.23;;;4.10;99.90;;;;;;5110170;28;20450;-91
2020/12/11 00:55:16;;;;;;;19.03;16.37;;;4.10;99.90;;;;;;5114629;28;20450;-90
2020/12/11 00:57:42;;;;;;;19.67;17.13;;;4.10;99.90;;;;;;5100054;28;20857;-91
2020/12/11 01:00:11;;;;;;;18.40;15.97;;;4.10;99.90;;;;;;5096067;28;20459;-90
2020/12/11 01:02:38;;;;;;;19.00;16.97;;;4.10;99.90;;;;;;5095378;28;20942;-90
2020/12/11 01:05:04;;;;;;;19.03;16.87;;;4.10;99.90;;;;;;5095349;28;20456;-90
2020/12/11 01:07:31;;;;;;;20.83;16.57;;;4.10;99.90;;;;;;5094605;28;20856;-90
2020/12/11 01:09:57;;;;;;;20.30;16.13;;;4.10;99.90;;;;;;5096081;28;20496;-91
2020/12/11 01:12:23;;;;;;;16.00;13.67;;;4.00;99.90;;;;;;5105153;28;20421;-90
2020/12/11 01:14:50;;;;;;;17.93;15.80;;;4.00;99.90;;;;;;5117466;28;20434;-90
2020/12/11 01:17:16;;;;;;;17.33;15.63;;;4.00;99.90;;;;;;5112202;28;20450;-90
2020/12/11 01:19:42;;;;;;;18.50;15.90;;;4.00;99.90;;;;;;5118537;28;20476;-91
2020/12/11 01:22:08;;;;;;;17.73;15.80;;;3.90;99.90;;;;;;5101660;28;20470;-90
2020/12/11 01:24:35;;;;;;;18.13;15.33;;;3.90;99.90;;;;;;5096002;28;20885;-91
2020/12/11 01:27:01;;;;;;;17.30;15.40;;;3.90;99.90;;;;;;5096464;28;20460;-91
2020/12/11 01:29:28;;;;;;;19.50;16.70;;;3.80;99.90;;;;;;5095551;28;20864;-90
2020/12/11 01:31:55;;;;;;;17.37;15.27;;;3.70;99.90;;;;;;5095212;28;20462;-90
2020/12/11 01:34:21;;;;;;;16.87;15.07;;;3.70;99.90;;;;;;5095180;28;20468;-91
2020/12/11 01:36:47;;;;;;;15.53;13.93;;;3.70;99.90;;;;;;5096743;28;20449;-91
2020/12/11 01:39:14;;;;;;;15.15;13.65;;;3.70;99.90;;;;;;5112652;28;20530;-91
2020/12/11 01:41:41;;;;;;;13.03;11.73;;;3.70;99.90;;;;;;5104065;28;20214;-91
2020/12/11 01:44:08;;;;;;;14.07;12.53;;;3.60;99.90;;;;;;5095561;28;20481;-90
2020/12/11 01:46:38;;;;;;;17.00;15.30;;;3.60;99.90;;;;;;5094960;28;20444;-90
2020/12/11 01:49:05;;;;;;;15.07;12.93;;;3.50;99.90;;;;;;5095131;28;20500;-91
2020/12/11 01:51:32;;;;;;;14.93;13.33;;;3.50;99.90;;;;;;5094970;28;20448;-90
2020/12/11 01:53:59;;;;;;;14.20;12.80;;;3.40;99.90;;;;;;5095023;28;20444;-90
2020/12/11 01:56:30;;;;;;;14.75;13.25;;;3.40;99.90;;;;;;5094839;28;20251;-90
2020/12/11 01:59:01;;;;;;;15.43;13.37;;;3.30;99.90;;;;;;5099430;28;20219;-90
2020/12/11 02:01:29;;;;;;;15.98;13.40;;;3.30;99.90;;;;;;5107401;28;20441;-90
2020/12/11 02:03:55;;;;;;;15.82;13.35;;;3.30;99.90;;;;;;5095549;28;20225;-90
2020/12/11 02:06:22;;;;;;;13.93;12.53;;;3.30;99.90;;;;;;5094472;28;20201;-90
2020/12/11 02:08:49;;;;;;;15.55;13.80;;;3.40;99.90;;;;;;5094100;28;20459;-91
2020/12/11 02:11:19;;;;;;;14.05;12.55;;;3.40;99.90;;;;;;5094872;28;20209;-90
2020/12/11 02:13:46;;;;;;;12.98;11.38;;;3.40;99.90;;;;;;5094827;28;20198;-91
2020/12/11 02:16:13;;;;;;;16.15;13.95;;;3.40;99.90;;;;;;5095293;28;20204;-90
2020/12/11 02:18:39;;;;;;;15.63;12.97;;;3.40;99.90;;;;;;5105687;28;20203;-91
2020/12/11 02:21:06;;;;;;;14.37;12.87;;;3.20;99.90;;;;;;5099600;28;20450;-91
2020/12/11 02:23:33;;;;;;;16.10;13.90;;;3.30;99.90;;;;;;5096315;28;20540;-90
2020/12/11 02:26:00;;;;;;;19.10;15.00;;;3.20;99.90;;;;;;5108240;28;20438;-92
2020/12/11 02:28:31;;;;;;;16.33;12.80;;;3.20;99.90;;;;;;5094312;28;20212;-91
2020/12/11 02:30:57;;;;;;;14.93;13.00;;;3.20;99.90;;;;;;5094422;28;20387;-91
2020/12/11 02:33:24;;;;;;;14.98;13.13;;;3.20;99.90;;;;;;5094193;28;20199;-92
2020/12/11 02:35:50;;;;;;;16.23;13.93;;;3.10;99.90;;;;;;5094404;28;20200;-90
2020/12/11 02:38:16;;;;;;;16.35;13.48;;;3.10;99.90;;;;;;5094168;28;20710;-91
2020/12/11 02:40:49;;;;;;;19.83;14.63;;;3.10;99.90;;;;;;5094044;28;20235;-91
2020/12/11 02:43:16;;;;;;;15.38;13.77;;;3.10;99.90;;;;;;5093785;28;20484;-90
2020/12/11 02:45:45;;;;;;;15.80;13.50;;;3.00;99.90;;;;;;5093530;28;20195;-91
2020/12/11 02:48:12;;;;;;;18.30;14.80;;;2.90;99.90;;;;;;5093790;28;20250;-90
2020/12/11 02:50:38;;;;;;;19.20;16.20;;;2.90;99.90;;;;;;5094069;28;20227;-91
2020/12/11 02:53:04;;;;;;;23.02;15.25;;;2.90;99.90;;;;;;5093468;28;20202;-91
2020/12/11 02:55:30;;;;;;;23.37;18.77;;;2.90;99.90;;;;;;5093960;28;20210;-92
2020/12/11 02:57:57;;;;;;;19.58;16.70;;;3.00;99.90;;;;;;5093833;28;20449;-91
2020/12/11 03:00:24;;;;;;;22.30;18.38;;;3.00;99.90;;;;;;5093683;28;20225;-91
2020/12/11 03:02:50;;;;;;;22.35;18.17;;;3.00;99.90;;;;;;5093962;28;20580;-91
2020/12/11 03:05:16;;;;;;;20.67;18.00;;;3.00;99.90;;;;;;5098732;28;20209;-91
2020/12/11 03:07:43;;;;;;;21.80;17.60;;;3.00;99.90;;;;;;5111392;28;20199;-91
2020/12/11 03:10:09;;;;;;;22.33;18.05;;;2.90;99.90;;;;;;5114427;28;20205;-91
2020/12/11 03:12:35;;;;;;;25.42;19.52;;;2.90;99.90;;;;;;5107288;28;20874;-91
2020/12/11 03:15:03;;;;;;;21.70;18.33;;;2.90;99.90;;;;;;5093382;28;20257;-90
2020/12/11 03:17:29;;;;;;;23.90;19.05;;;2.90;99.90;;;;;;5093703;28;20201;-92
2020/12/11 03:19:56;;;;;;;22.27;18.80;;;3.00;99.90;;;;;;5093122;28;20220;-91
2020/12/11 03:22:22;;;;;;;25.90;19.60;;;3.00;99.90;;;;;;5093511;28;20806;-90
2020/12/11 03:24:49;;;;;;;21.93;18.33;;;3.00;99.90;;;;;;5093344;28;20501;-91
2020/12/11 03:27:15;;;;;;;24.83;18.65;;;3.00;99.90;;;;;;5114809;28;20425;-91
2020/12/11 03:29:41;;;;;;;25.73;20.20;;;2.90;99.90;;;;;;5116012;28;20248;-91
2020/12/11 03:32:08;;;;;;;23.77;20.90;;;2.90;99.90;;;;;;5107623;28;20179;-93
2020/12/11 03:34:34;;;;;;;22.40;17.17;;;2.80;99.90;;;;;;5108680;28;20542;-93
2020/12/11 03:37:00;;;;;;;22.10;16.65;;;2.90;99.90;;;;;;5095621;28;20474;-91
2020/12/11 03:39:26;;;;;;;24.15;18.00;;;2.80;99.90;;;;;;5107618;28;20233;-92
2020/12/11 03:41:53;;;;;;;24.52;18.65;;;2.70;99.90;;;;;;5095657;28;20211;-91
2020/12/11 03:44:20;;;;;;;25.73;18.80;;;2.80;99.90;;;;;;5093860;28;20215;-91
2020/12/11 03:46:46;;;;;;;25.60;18.80;;;2.70;99.90;;;;;;5093787;28;20733;-90
2020/12/11 03:49:13;;;;;;;23.33;17.80;;;2.60;99.90;;;;;;5093048;28;20223;-91
2020/12/11 03:51:39;;;;;;;20.45;17.38;;;2.60;99.90;;;;;;5093532;28;20209;-91
2020/12/11 03:54:06;;;;;;;25.17;17.90;;;2.60;99.90;;;;;;5093130;28;20203;-91
2020/12/11 03:56:32;;;;;;;24.17;17.73;;;2.50;99.90;;;;;;5092804;28;20206;-91
2020/12/11 03:58:58;;;;;;;22.13;18.10;;;2.50;99.90;;;;;;5092817;28;20671;-91
2020/12/11 04:01:24;;;;;;;25.67;18.73;;;2.50;99.90;;;;;;5093075;28;20198;-91
2020/12/11 04:03:52;;;;;;;28.45;19.85;;;2.40;99.90;;;;;;5093752;28;20248;-91
2020/12/11 04:06:19;;;;;;;27.30;19.70;;;2.40;99.90;;;;;;5097251;28;20212;-91
2020/12/11 04:08:45;;;;;;;25.42;19.30;;;2.30;99.90;;;;;;5096654;28;20206;-90
2020/12/11 04:11:13;;;;;;;25.50;20.38;;;2.30;99.90;;;;;;5097352;28;20674;-90
2020/12/11 04:13:40;;;;;;;27.27;19.17;;;2.30;99.90;;;;;;5096908;28;20252;-90
2020/12/11 04:16:09;;;;;;;29.92;21.67;;;2.30;99.90;;;;;;5099401;28;20424;-91
2020/12/11 04:18:35;;;;;;;24.10;18.42;;;2.30;99.90;;;;;;5115817;28;20198;-90
2020/12/11 04:21:01;;;;;;;24.48;19.35;;;2.30;99.90;;;;;;5111920;28;20229;-91
2020/12/11 04:23:29;;;;;;;27.33;19.67;;;2.30;99.90;;;;;;5106180;28;20214;-91
2020/12/11 04:25:55;;;;;;;27.30;20.70;;;2.30;99.90;;;;;;5096384;28;20206;-91
2020/12/11 04:28:22;;;;;;;28.50;21.10;;;2.30;99.90;;;;;;5096792;28;20223;-90
2020/12/11 04:30:48;;;;;;;27.00;19.83;;;2.30;99.90;;;;;;5097959;28;20221;-91
2020/12/11 04:33:14;;;;;;;30.80;21.58;;;2.30;99.90;;;;;;5102178;28;20441;-91
2020/12/11 04:35:42;;;;;;;27.55;19.90;;;2.30;99.90;;;;;;5096827;28;20195;-91
2020/12/11 04:38:08;;;;;;;29.55;20.98;;;2.30;99.90;;;;;;5096786;28;20194;-92
2020/12/11 04:40:35;;;;;;;27.33;20.52;;;2.30;99.90;;;;;;5096705;28;20224;-91
2020/12/11 04:43:04;;;;;;;28.83;19.27;;;2.30;99.90;;;;;;5096317;28;20207;-91
2020/12/11 04:45:31;;;;;;;30.92;20.40;;;2.30;99.90;;;;;;5095625;28;20203;-90
2020/12/11 04:47:57;;;;;;;31.92;22.33;;;2.30;99.90;;;;;;5099645;28;20199;-91
2020/12/11 04:50:24;;;;;;;35.47;24.38;;;2.30;99.90;;;;;;5098848;28;20210;-91
2020/12/11 04:52:50;;;;;;;35.10;22.38;;;2.20;99.90;;;;;;5106091;28;20197;-91
2020/12/11 04:55:18;;;;;;;33.77;22.73;;;2.20;99.90;;;;;;5102471;28;20717;-91
2020/12/11 04:57:47;;;;;;;28.98;20.17;;;2.10;99.90;;;;;;5097268;28;20452;-91
2020/12/11 05:00:13;;;;;;;26.30;19.42;;;2.10;99.90;;;;;;5095656;28;20265;-91
2020/12/11 05:02:41;;;;;;;26.08;18.80;;;2.10;99.90;;;;;;5096664;28;20230;-90
2020/12/11 05:05:08;;;;;;;27.20;18.77;;;2.10;99.90;;;;;;5095795;28;20218;-91
2020/12/11 05:07:35;;;;;;;27.85;20.15;;;2.10;99.90;;;;;;5095807;28;20215;-91
2020/12/11 05:10:02;;;;;;;24.88;18.83;;;2.10;99.90;;;;;;5095889;28;20218;-91
2020/12/11 05:12:28;;;;;;;27.35;20.13;;;2.00;99.90;;;;;;5095597;28;20206;-91
2020/12/11 05:14:57;;;;;;;29.80;20.05;;;2.00;99.90;;;;;;5094754;28;20303;-90
2020/12/11 05:17:28;;;;;;;31.02;22.33;;;1.90;99.90;;;;;;5096877;28;20617;-90
2020/12/11 05:19:55;;;;;;;30.50;20.45;;;1.90;99.90;;;;;;5108593;28;20217;-91
2020/12/11 05:22:22;;;;;;;30.80;20.48;;;1.80;99.90;;;;;;5115908;28;20188;-90
2020/12/11 05:24:50;;;;;;;30.38;20.83;;;1.70;99.90;;;;;;5096908;28;20221;-91
2020/12/11 05:27:30;;;;;;;32.70;22.45;;;1.70;99.90;;;;;;5095653;28;20195;-91
2020/12/11 05:29:58;;;;;;;28.65;21.27;;;1.60;99.90;;;;;;5095413;28;20243;-91
2020/12/11 05:32:39;;;;;;;30.27;21.40;;;1.60;99.90;;;;;;5112636;28;20189;-92
2020/12/11 05:35:07;;;;;;;29.33;20.60;;;1.50;99.90;;;;;;5101341;28;20198;-92
2020/12/11 05:37:45;;;;;;;33.58;21.38;;;1.50;99.90;;;;;;5095889;28;20229;-91
2020/12/11 05:40:19;;;;;;;28.00;20.10;;;1.60;99.90;;;;;;5097888;28;20264;-91
2020/12/11 05:43:08;;;;;;;30.35;19.17;;;1.60;99.90;;;;;;5108418;28;20182;-91
2020/12/11 05:45:37;;;;;;;27.35;20.08;;;1.50;99.90;;;;;;5116393;28;20231;-91
2020/12/11 05:48:04;;;;;;;30.40;21.70;;;1.50;99.90;;;;;;5100860;28;20201;-91
2020/12/11 05:50:30;;;;;;;33.17;20.48;;;1.40;99.90;;;;;;5106521;28;20710;-91
2020/12/11 05:52:56;;;;;;;29.73;21.55;;;1.40;99.90;;;;;;5109567;28;20205;-90
2020/12/11 05:55:24;;;;;;;26.45;17.13;;;1.50;99.90;;;;;;5100276;28;20205;-91
2020/12/11 05:57:53;;;;;;;32.80;22.13;;;1.40;99.90;;;;;;5095988;28;20194;-91
2020/12/11 06:00:20;;;;;;;32.08;20.63;;;1.50;99.90;;;;;;5096357;28;20718;-91
2020/12/11 06:02:49;;;;;;;30.58;20.05;;;1.50;99.90;;;;;;5096457;28;20214;-91
2020/12/11 06:05:16;;;;;;;28.52;19.60;;;1.50;99.90;;;;;;5096202;28;20222;-91
2020/12/11 06:07:44;;;;;;;28.63;19.70;;;1.50;99.90;;;;;;5108590;28;20208;-91
2020/12/11 06:10:13;;;;;;;33.05;21.80;;;1.50;99.90;;;;;;5095515;28;20248;-91
2020/12/11 06:12:40;;;;;;;34.17;21.80;;;1.60;99.90;;;;;;5095448;28;20194;-91
2020/12/11 06:15:11;;;;;;;29.92;21.80;;;1.60;99.90;;;;;;5094617;28;20287;-91
2020/12/11 06:17:40;;;;;;;31.80;21.52;;;1.50;99.90;;;;;;5102255;28;20213;-91
2020/12/11 06:20:09;;;;;;;34.50;22.58;;;1.50;99.90;;;;;;5112614;28;20217;-91
2020/12/11 06:22:38;;;;;;;29.83;19.98;;;1.50;99.90;;;;;;5097337;28;20666;-91
2020/12/11 06:25:27;;;;;;;31.23;20.13;;;1.50;99.90;;;;;;5096013;28;20217;-91
2020/12/11 06:27:53;;;;;;;26.35;17.98;;;1.50;99.90;;;;;;5094855;28;20197;-91
2020/12/11 06:30:28;;;;;;;30.60;20.63;;;1.60;99.90;;;;;;5095356;28;20233;-90
2020/12/11 06:32:55;;;;;;;29.40;19.38;;;1.60;99.90;;;;;;5094773;28;20217;-91
2020/12/11 06:35:22;;;;;;;23.30;17.35;;;1.60;99.90;;;;;;5095216;28;20200;-92
2020/12/11 06:37:49;;;;;;;29.63;21.15;;;1.60;99.90;;;;;;5095582;28;20201;-92
2020/12/11 06:40:15;;;;;;;34.42;19.67;;;1.50;99.90;;;;;;5095891;28;20218;-91
2020/12/11 06:42:43;;;;;;;33.60;21.02;;;1.60;99.90;;;;;;5106845;28;20260;-91
2020/12/11 06:45:29;;;;;;;38.92;23.15;;;1.60;99.90;;;;;;5103776;28;20229;-91
2020/12/11 06:47:57;;;;;;;33.28;21.05;;;1.70;99.90;;;;;;5097330;28;20208;-92
2020/12/11 06:50:26;;;;;;;42.42;21.83;;;1.70;99.90;;;;;;5095056;28;20229;-92
2020/12/11 06:52:53;;;;;;;27.35;19.50;;;1.70;99.90;;;;;;5097951;28;20298;-90
2020/12/11 06:55:19;;;;;;;32.83;18.40;;;1.70;99.90;;;;;;5097193;28;20200;-91
2020/12/11 06:57:47;;;;;;;28.05;19.17;;;1.70;99.90;;;;;;5094488;28;20201;-91
2020/12/11 07:00:34;;;;;;;32.08;19.42;;;1.70;99.90;;;;;;5094028;28;20701;-91
2020/12/11 07:03:28;;;;;;;25.55;18.45;;;1.80;99.90;;;;;;5096101;28;20193;-90
2020/12/11 07:06:08;;;;;;;34.13;20.30;;;1.80;99.90;;;;;;5074447;28;20202;-92
2020/12/11 07:08:34;;;;;;;30.08;19.60;;;1.80;99.90;;;;;;5079578;28;20208;-91
2020/12/11 07:11:11;;;;;;;28.17;20.40;;;1.80;99.90;;;;;;5100698;28;20218;-91
2020/12/11 07:13:49;;;;;;;25.92;18.50;;;1.70;99.90;;;;;;5110812;28;20198;-90
2020/12/11 07:16:16;;;;;;;28.30;18.10;;;1.70;99.90;;;;;;5098909;28;20252;-91
2020/12/11 07:18:43;;;;;;;25.88;18.60;;;1.70;99.90;;;;;;5094245;28;20295;-90
2020/12/11 07:21:11;;;;;;;26.35;18.17;;;1.70;99.90;;;;;;5094428;28;20724;-91
2020/12/11 07:23:37;;;;;;;26.75;18.73;;;1.70;99.90;;;;;;5106598;28;20221;-91
2020/12/11 07:26:04;;;;;;;24.90;19.23;;;1.70;99.90;;;;;;5093366;28;20685;-91
2020/12/11 07:28:31;;;;;;;26.95;19.05;;;1.70;99.90;;;;;;5093675;28;20193;-91
2020/12/11 07:30:57;;;;;;;25.45;17.33;;;1.70;99.90;;;;;;5086928;28;20248;-91
2020/12/11 07:33:33;;;;;;;27.88;19.85;;;1.70;99.90;;;;;;5073431;28;20576;-91
2020/12/11 07:36:01;;;;;;;27.25;18.52;;;1.60;99.90;;;;;;5087626;28;20208;-91
2020/12/11 07:38:28;;;;;;;29.75;21.05;;;1.60;99.90;;;;;;5096020;28;20197;-91
2020/12/11 07:40:56;;;;;;;27.15;19.45;;;1.70;99.90;;;;;;5094428;28;20701;-91
2020/12/11 07:43:23;;;;;;;28.95;19.70;;;1.70;99.90;;;;;;5093125;28;20194;-91
2020/12/11 07:45:50;;;;;;;26.08;19.20;;;1.70;99.90;;;;;;5092716;28;20201;-91
2020/12/11 07:48:16;;;;;;;27.10;19.77;;;1.70;99.90;;;;;;5093723;28;20201;-91
2020/12/11 07:50:43;;;;;;;27.63;19.98;;;1.80;99.90;;;;;;5093611;28;20227;-91
2020/12/11 07:53:10;;;;;;;29.27;19.58;;;1.70;99.90;;;;;;5093086;28;20205;-90
2020/12/11 07:55:37;;;;;;;28.52;19.10;;;1.80;99.90;;;;;;5093170;28;20557;-90
2020/12/11 07:58:04;;;;;;;30.40;20.38;;;1.80;99.90;;;;;;5097946;28;20262;-89
2020/12/11 08:00:34;;;;;;;26.88;19.77;;;1.80;99.90;;;;;;5103594;28;20282;-87
2020/12/11 08:03:08;;;;;;;27.50;18.98;;;1.90;99.90;;;;;;5099884;28;20554;-88
2020/12/11 08:05:39;;;;;;;27.45;19.42;;;1.90;99.90;;;;;;5091091;28;20260;-88
2020/12/11 08:08:07;;;;;;;27.98;19.05;;;1.90;99.90;;;;;;5094366;28;20193;-89
2020/12/11 08:10:40;;;;;;;27.75;18.92;;;1.90;99.90;;;;;;5090246;28;20225;-89
2020/12/11 08:13:17;;;;;;;26.70;18.98;;;1.90;99.90;;;;;;5090473;28;20201;-90
2020/12/11 08:15:45;;;;;;;28.52;19.80;;;2.00;99.90;;;;;;5090829;28;20189;-89
2020/12/11 08:18:22;;;;;;;33.50;19.52;;;2.20;99.90;;;;;;5091520;28;20199;-89
2020/12/11 08:20:54;;;;;;;26.35;19.30;;;2.30;99.90;;;;;;5090240;28;20318;-88
2020/12/11 08:23:26;;;;;;;28.30;19.08;;;2.40;99.90;;;;;;5099898;28;20208;-89
2020/12/11 08:26:10;;;;;;;28.33;19.92;;;2.50;99.90;;;;;;5086353;28;20197;-89
2020/12/11 08:28:37;;;;;;;31.52;20.60;;;2.60;99.90;;;;;;5093289;28;20205;-91
2020/12/11 08:31:19;;;;;;;27.77;17.88;;;2.80;99.90;;;;;;5091234;28;20213;-90
2020/12/11 08:33:46;;;;;;;28.13;19.10;;;3.00;99.90;;;;;;5091102;28;20670;-90
2020/12/11 08:36:24;;;;;;;26.53;18.80;;;3.10;99.90;;;;;;5092465;28;20904;-89
2020/12/11 08:39:16;;;;;;;31.13;18.65;;;3.20;99.90;;;;;;5094172;28;20447;-89
2020/12/11 08:41:57;;;;;;;25.63;18.58;;;3.20;99.90;;;;;;5086641;28;20225;-86
2020/12/11 08:44:31;;;;;;;28.77;18.05;;;3.20;99.90;;;;;;5095735;28;20595;-86
2020/12/11 08:47:08;;;;;;;27.80;19.17;;;3.00;99.90;;;;;;5091539;28;20198;-86
2020/12/11 08:49:44;;;;;;;24.75;15.50;;;3.00;99.90;;;;;;5092282;28;20253;-86
2020/12/11 08:52:11;;;;;;;23.33;18.98;;;3.10;99.90;;;;;;5096735;28;20210;-86
2020/12/11 08:54:37;;;;;;;25.52;17.60;;;3.10;99.90;;;;;;5095158;28;20284;-86
2020/12/11 08:57:04;;;;;;;24.90;18.42;;;3.30;99.90;;;;;;5095636;28;20207;-87
2020/12/11 08:59:31;;;;;;;21.58;17.10;;;3.50;99.90;;;;;;5107006;28;20228;-87
2020/12/11 09:01:59;;;;;;;25.90;18.65;;;3.60;99.90;;;;;;5115827;28;20205;-87
2020/12/11 09:04:25;;;;;;;21.33;17.42;;;3.60;99.90;;;;;;5096628;28;20726;-87
2020/12/11 09:06:51;;;;;;;24.50;16.77;;;3.70;99.90;;;;;;5095667;28;20214;-87
2020/12/11 09:09:18;;;;;;;31.87;18.90;;;3.80;99.90;;;;;;5095672;28;20528;-87
2020/12/11 09:11:44;;;;;;;31.43;18.83;;;3.80;99.90;;;;;;5096742;28;20436;-87
2020/12/11 09:14:11;;;;;;;29.17;20.77;;;3.80;99.90;;;;;;5113636;22;20903;-87
2020/12/11 09:16:37;;;;;;;28.93;19.70;;;3.70;99.90;;;;;;5054277;28;20435;-87
2020/12/11 09:19:03;;;;;;;27.20;20.57;;;3.80;99.90;;;;;;5054970;28;20439;-86
2020/12/11 09:21:30;;;;;;;29.93;19.23;;;3.80;99.90;;;;;;5058600;28;20443;-86
2020/12/11 09:23:56;;;;;;;30.40;19.87;;;3.90;99.90;;;;;;5061746;28;20987;-86
2020/12/11 09:26:25;;;;;;;28.47;21.13;;;4.00;99.90;;;;;;5061779;28;20454;-86
2020/12/11 09:28:57;;;;;;;30.27;22.13;;;4.10;99.90;;;;;;5061203;28;20463;-87
2020/12/11 09:31:25;;;;;;;29.13;21.07;;;4.10;99.90;;;;;;5058544;28;20593;-87
2020/12/11 09:33:52;;;;;;;28.43;19.67;;;4.20;99.90;;;;;;5048760;28;20459;-87
2020/12/11 09:36:18;;;;;;;34.60;22.00;;;4.10;99.90;;;;;;5056486;28;20554;-87
2020/12/11 09:38:44;;;;;;;34.33;22.43;;;4.20;99.90;;;;;;5037643;28;20791;-87
2020/12/11 09:41:14;;;;;;;31.97;19.10;;;4.20;99.90;;;;;;5056129;28;20465;-86
2020/12/11 09:43:58;;;;;;;30.50;20.93;;;4.20;99.90;;;;;;5058124;28;20448;-86
2020/12/11 09:46:32;;;;;;;33.93;21.13;;;4.10;99.90;;;;;;5057418;28;20479;-87
2020/12/11 09:49:03;;;;;;;36.10;21.43;;;4.10;99.90;;;;;;5057514;28;20466;-87
2020/12/11 09:51:52;;;;;;;28.33;20.60;;;4.20;99.90;;;;;;5051887;28;20436;-87
2020/12/11 09:54:21;;;;;;;31.03;21.40;;;4.30;99.90;;;;;;5037667;28;20453;-87
2020/12/11 09:56:48;;;;;;;28.87;20.40;;;4.40;99.90;;;;;;5039951;28;20453;-88
2020/12/11 09:59:16;;;;;;;25.90;18.50;;;4.40;99.90;;;;;;5059141;28;20446;-88
2020/12/11 10:04:27;;;;;;;31.40;19.60;;;4.60;99.90;;;;;;5042756;28;20551;-89
2020/12/11 10:06:53;;;;;;;24.67;18.17;;;4.70;99.90;;;;;;5055433;28;20444;-88
2020/12/11 10:09:19;;;;;;;35.27;18.70;;;4.70;99.90;;;;;;5055711;28;20471;-87
2020/12/11 10:11:49;;;;;;;26.43;18.67;;;4.70;99.90;;;;;;5057347;28;20441;-87
2020/12/11 10:14:22;;;;;;;31.90;20.03;;;4.60;99.90;;;;;;5054205;28;20455;-87
2020/12/11 10:16:52;;;;;;;27.23;17.93;;;4.70;99.90;;;;;;5048743;28;20443;-87
2020/12/11 10:19:18;;;;;;;31.53;21.43;;;4.80;99.90;;;;;;5051638;28;20461;-87
2020/12/11 10:21:46;;;;;;;25.80;18.67;;;5.00;99.90;;;;;;5043337;28;20452;-87
2020/12/11 10:24:13;;;;;;;28.43;19.90;;;5.10;99.90;;;;;;5043732;28;20484;-87
2020/12/11 10:26:39;;;;;;;27.70;19.80;;;5.10;99.90;;;;;;5042778;28;20459;-88
2020/12/11 10:29:06;;;;;;;25.63;19.07;;;5.00;99.90;;;;;;5042925;28;20451;-87
2020/12/11 10:31:32;;;;;;;25.50;17.20;;;5.10;99.90;;;;;;5043077;28;20444;-88
2020/12/11 10:33:59;;;;;;;31.40;18.93;;;5.10;99.90;;;;;;5042680;28;20989;-88
2020/12/11 10:36:29;;;;;;;27.43;18.90;;;5.10;99.90;;;;;;5042119;28;20435;-88
2020/12/11 10:38:56;;;;;;;30.50;19.57;;;5.00;99.90;;;;;;5042616;28;20440;-91
2020/12/11 10:41:22;;;;;;;30.13;18.87;;;5.10;99.90;;;;;;5042824;28;20459;-88
2020/12/11 10:43:49;;;;;;;23.90;18.83;;;5.20;99.90;;;;;;5040430;28;20436;-88
2020/12/11 10:46:15;;;;;;;25.30;18.80;;;5.00;99.90;;;;;;5041404;28;20456;-88
2020/12/11 10:48:41;;;;;;;27.53;18.43;;;4.80;99.90;;;;;;5046430;28;20457;-90
2020/12/11 10:51:11;;;;;;;26.20;18.53;;;4.80;99.90;;;;;;5042436;28;20506;-89
2020/12/11 10:53:38;;;;;;;21.90;15.47;;;4.70;99.90;;;;;;5041844;28;20941;-91
2020/12/11 10:56:07;;;;;;;25.83;16.10;;;4.80;99.90;;;;;;5040843;28;20514;-89
2020/12/11 10:58:33;;;;;;;23.17;15.03;;;4.90;99.90;;;;;;5043830;28;20435;-88
2020/12/11 11:01:02;;;;;;;25.00;17.63;;;4.90;99.90;;;;;;5043107;28;20475;-88
2020/12/11 11:03:29;;;;;;;19.73;15.33;;;5.00;99.90;;;;;;5040944;28;20440;-89
2020/12/11 11:05:56;;;;;;;23.53;16.57;;;4.90;99.90;;;;;;5046851;28;20519;-88
2020/12/11 11:08:33;;;;;;;29.30;17.53;;;4.90;99.90;;;;;;5051557;28;20493;-89
2020/12/11 11:10:59;;;;;;;22.03;15.00;;;4.90;99.90;;;;;;5044857;28;20470;-89
2020/12/11 11:13:31;;;;;;;19.30;16.20;;;5.00;99.90;;;;;;5041438;28;20450;-89
2020/12/11 11:15:58;;;;;;;20.87;14.93;;;5.00;99.90;;;;;;5042883;28;20451;-88
2020/12/11 11:18:34;;;;;;;22.50;16.47;;;5.10;99.90;;;;;;5050422;28;20436;-89
2020/12/11 11:23:58;;;;;;;25.73;18.43;;;5.30;99.90;;;;;;5042328;28;20502;-89
2020/12/11 11:26:43;;;;;;;23.87;17.57;;;5.30;99.90;;;;;;5043969;28;21003;-89
2020/12/11 11:29:09;;;;;;;23.07;17.97;;;5.40;99.90;;;;;;5040407;28;20459;-89
2020/12/11 11:31:35;;;;;;;21.77;17.33;;;5.50;99.90;;;;;;5042682;28;20437;-89
2020/12/11 11:34:04;;;;;;;25.33;17.90;;;5.60;99.90;;;;;;5043034;28;20444;-89
2020/12/11 11:36:32;;;;;;;20.53;17.40;;;5.80;99.90;;;;;;5042746;28;20441;-90
2020/12/11 11:38:59;;;;;;;21.87;16.97;;;6.00;99.90;;;;;;5042339;28;20441;-88
2020/12/11 11:44:36;;;;;;;24.60;17.43;;;5.90;99.90;;;;;;5042531;28;20467;-92
2020/12/11 11:47:03;;;;;;;25.53;18.50;;;5.80;99.90;;;;;;5043681;28;20436;-90
2020/12/11 11:49:33;;;;;;;22.37;17.63;;;6.00;99.90;;;;;;5041289;28;20463;-88
2020/12/11 11:52:09;;;;;;;20.40;16.30;;;6.40;99.90;;;;;;5041178;28;20483;-90
2020/12/11 11:54:37;;;;;;;19.13;16.67;;;6.60;99.90;;;;;;5039873;28;20993;-90
2020/12/11 11:57:03;;;;;;;22.63;16.53;;;6.80;99.90;;;;;;5040935;28;20438;-90
2020/12/11 11:59:29;;;;;;;28.33;18.10;;;6.80;99.90;;;;;;5039598;28;20806;-90
2020/12/11 12:01:56;;;;;;;25.20;17.43;;;6.80;99.90;;;;;;5037983;28;20444;-90
2020/12/11 12:04:23;;;;;;;27.60;18.53;;;6.40;99.90;;;;;;5041087;28;20476;-92
2020/12/11 12:06:49;;;;;;;24.87;16.50;;;6.40;99.90;;;;;;5041091;28;20910;-90
2020/12/11 12:09:17;;;;;;;20.27;16.33;;;6.30;99.90;;;;;;5041247;28;20950;-91
2020/12/11 12:11:45;;;;;;;26.73;18.20;;;6.20;99.90;;;;;;5040189;28;20445;-89
2020/12/11 12:14:11;;;;;;;22.60;18.93;;;6.30;99.90;;;;;;5041213;28;20475;-89
2020/12/11 12:16:39;;;;;;;30.43;19.07;;;6.10;99.90;;;;;;5044154;28;20436;-89
2020/12/11 12:19:08;;;;;;;29.73;20.50;;;6.10;99.90;;;;;;5054876;28;20421;-89
2020/12/11 12:21:40;;;;;;;27.90;19.87;;;6.00;99.90;;;;;;5054724;28;20444;-89
2020/12/11 12:29:36;;;;;;;25.90;18.97;;;6.70;99.90;;;;;;5045573;28;20445;-89
2020/12/11 12:32:07;;;;;;;19.47;16.17;;;6.90;99.90;;;;;;5056690;28;20438;-89
2020/12/11 12:37:31;;;;;;;21.90;17.40;;;6.90;99.90;;;;;;5060137;28;20433;-90
2020/12/11 12:43:09;;;;;;;27.87;19.40;;;6.60;99.90;;;;;;5045568;28;20421;-89
2020/12/11 12:45:35;;;;;;;20.83;17.57;;;6.50;99.90;;;;;;5044737;28;20932;-90
2020/12/11 12:48:01;;;;;;;27.63;17.60;;;6.30;99.90;;;;;;5048719;28;20439;-93
2020/12/11 12:50:27;;;;;;;26.00;18.83;;;6.20;99.90;;;;;;5046451;28;20468;-92
2020/12/11 12:52:54;;;;;;;22.97;15.70;;;6.20;99.90;;;;;;5043753;28;20405;-91
2020/12/11 12:55:25;;;;;;;26.50;17.63;;;6.20;99.90;;;;;;5043360;28;20441;-88
2020/12/11 12:57:55;;;;;;;22.90;18.00;;;6.10;99.90;;;;;;5044557;28;20476;-87
2020/12/11 13:00:25;;;;;;;22.07;16.30;;;6.00;99.90;;;;;;5048272;28;20509;-87
2020/12/11 13:05:41;;;;;;;22.27;17.60;;;5.80;99.90;;;;;;5043477;28;20553;-88